createdAt,value
2018-08-03T00:01:35.792Z,16.40
2018-08-03T00:04:03.896Z,17.10
2018-08-03T00:06:32.277Z,17.40
2018-08-03T00:09:00.346Z,17.20
2018-08-03T00:11:28.469Z,18.77
2018-08-03T00:13:56.529Z,18.23
2018-08-03T00:16:24.621Z,18.73
2018-08-03T00:18:52.700Z,17.50
2018-08-03T00:21:20.785Z,19.83
2018-08-03T00:23:48.849Z,16.97
2018-08-03T00:26:16.908Z,18.10
2018-08-03T00:28:45.003Z,18.33
2018-08-03T00:31:13.136Z,18.63
2018-08-03T00:33:41.218Z,20.00
2018-08-03T00:36:09.289Z,19.17
2018-08-03T00:38:37.367Z,18.00
2018-08-03T00:41:05.476Z,17.40
2018-08-03T00:43:33.621Z,19.67
2018-08-03T00:46:01.772Z,18.83
2018-08-03T00:48:29.876Z,18.90
2018-08-03T00:50:58.016Z,20.23
2018-08-03T00:53:26.177Z,17.70
2018-08-03T00:55:54.432Z,18.70
2018-08-03T00:58:22.553Z,17.50
2018-08-03T01:00:50.608Z,19.50
2018-08-03T01:03:18.668Z,21.57
2018-08-03T01:05:46.760Z,20.00
2018-08-03T01:08:14.952Z,18.20
2018-08-03T01:10:43.012Z,20.33
2018-08-03T01:13:11.188Z,18.77
2018-08-03T01:15:39.273Z,18.37
2018-08-03T01:18:07.432Z,20.20
2018-08-03T01:20:35.593Z,19.60
2018-08-03T01:23:03.989Z,19.80
2018-08-03T01:25:32.189Z,19.10
2018-08-03T01:28:00.241Z,18.70
2018-08-03T01:30:28.441Z,19.90
2018-08-03T01:32:56.488Z,20.67
2018-08-03T01:35:24.589Z,20.77
2018-08-03T01:37:52.799Z,20.37
2018-08-03T01:40:21.388Z,20.77
2018-08-03T01:42:49.512Z,19.53
2018-08-03T01:45:17.720Z,20.87
2018-08-03T01:47:45.845Z,19.90
2018-08-03T01:50:14.004Z,19.50
2018-08-03T01:52:42.096Z,21.03
2018-08-03T01:55:10.160Z,20.23
2018-08-03T01:57:38.244Z,21.80
2018-08-03T02:00:06.317Z,19.93
2018-08-03T02:02:34.420Z,20.17
2018-08-03T02:05:02.493Z,21.17
2018-08-03T02:07:30.582Z,20.67
2018-08-03T02:09:58.988Z,19.30
2018-08-03T02:12:27.069Z,19.80
2018-08-03T02:14:55.120Z,21.63
2018-08-03T02:17:23.288Z,20.83
2018-08-03T02:19:51.417Z,21.00
2018-08-03T02:22:19.817Z,20.23
2018-08-03T02:24:47.977Z,21.77
2018-08-03T02:27:16.036Z,21.37
2018-08-03T02:29:44.217Z,20.90
2018-08-03T02:32:12.609Z,21.73
2018-08-03T02:34:40.689Z,20.20
2018-08-03T02:37:08.777Z,21.33
2018-08-03T02:39:36.916Z,21.37
2018-08-03T02:42:04.988Z,20.47
2018-08-03T02:44:33.138Z,21.83
2018-08-03T02:47:01.197Z,21.43
2018-08-03T02:49:29.329Z,20.33
2018-08-03T02:51:57.391Z,21.10
2018-08-03T02:54:25.476Z,20.70
2018-08-03T02:56:53.557Z,19.87
2018-08-03T02:59:21.628Z,20.23
2018-08-03T03:01:49.796Z,20.37
2018-08-03T03:04:17.857Z,20.07
2018-08-03T03:06:45.906Z,20.50
2018-08-03T03:09:13.982Z,20.90
2018-08-03T03:11:42.076Z,21.60
2018-08-03T03:14:10.128Z,22.67
2018-08-03T03:16:38.293Z,20.83
2018-08-03T03:19:06.350Z,20.53
2018-08-03T03:21:34.439Z,20.30
2018-08-03T03:24:02.496Z,21.47
2018-08-03T03:26:30.605Z,20.63
2018-08-03T03:28:58.848Z,21.40
2018-08-03T03:31:26.937Z,21.80
2018-08-03T03:33:55.028Z,20.90
2018-08-03T03:36:23.115Z,22.37
2018-08-03T03:38:51.201Z,21.93
2018-08-03T03:41:19.268Z,22.87
2018-08-03T03:43:49.016Z,21.47
2018-08-03T03:46:17.440Z,22.50
2018-08-03T03:48:45.619Z,21.20
2018-08-03T03:51:13.672Z,21.80
2018-08-03T03:53:41.746Z,22.83
2018-08-03T03:56:09.872Z,22.00
2018-08-03T03:58:38.014Z,22.23
2018-08-03T04:01:06.107Z,21.63
2018-08-03T04:03:34.563Z,22.50
2018-08-03T04:06:02.620Z,24.30
2018-08-03T04:08:30.735Z,23.10
2018-08-03T04:10:59.289Z,22.23
2018-08-03T04:13:27.581Z,22.40
2018-08-03T04:15:55.672Z,21.20
2018-08-03T04:18:23.796Z,21.37
2018-08-03T04:20:52.714Z,24.23
2018-08-03T04:23:21.076Z,22.77
2018-08-03T04:25:49.447Z,23.73
2018-08-03T04:28:17.504Z,23.00
2018-08-03T04:30:45.837Z,25.03
2018-08-03T04:33:14.168Z,24.13
2018-08-03T04:35:42.228Z,23.33
2018-08-03T04:38:10.753Z,22.60
2018-08-03T04:40:38.840Z,21.37
2018-08-03T04:43:06.949Z,22.50
2018-08-03T04:45:36.033Z,21.40
2018-08-03T04:48:05.277Z,23.40
2018-08-03T04:50:34.437Z,21.70
2018-08-03T04:53:03.711Z,22.73
2018-08-03T04:55:33.544Z,21.23
2018-08-03T04:58:03.553Z,20.13
2018-08-03T05:00:32.678Z,20.50
2018-08-03T05:03:01.684Z,24.93
2018-08-03T05:05:30.793Z,21.77
2018-08-03T05:07:59.670Z,22.03
2018-08-03T05:10:28.436Z,21.80
2018-08-03T05:12:56.508Z,23.57
2018-08-03T05:15:26.776Z,22.00
2018-08-03T05:17:56.676Z,22.50
2018-08-03T05:20:25.898Z,21.20
2018-08-03T05:22:55.126Z,23.70
2018-08-03T05:25:24.377Z,21.23
2018-08-03T05:27:53.475Z,20.77
2018-08-03T05:30:22.701Z,23.00
2018-08-03T05:32:51.777Z,23.13
2018-08-03T05:35:19.891Z,22.13
2018-08-03T05:37:49.294Z,23.00
2018-08-03T05:40:18.095Z,23.70
2018-08-03T05:42:46.333Z,25.90
2018-08-03T05:45:14.797Z,23.87
2018-08-03T05:47:43.738Z,25.43
2018-08-03T05:50:13.067Z,25.80
2018-08-03T05:52:42.310Z,24.63
2018-08-03T05:55:10.359Z,24.67
2018-08-03T05:57:38.449Z,25.87
2018-08-03T06:00:06.565Z,25.00
2018-08-03T06:02:34.709Z,26.50
2018-08-03T06:05:02.786Z,24.57
2018-08-03T06:07:31.085Z,26.37
2018-08-03T06:09:59.149Z,24.57
2018-08-03T06:12:27.260Z,27.63
2018-08-03T06:14:55.377Z,25.00
2018-08-03T06:17:23.604Z,25.80
2018-08-03T06:19:51.678Z,26.30
2018-08-03T06:22:19.764Z,24.90
2018-08-03T06:24:47.947Z,25.07
2018-08-03T06:27:16.050Z,22.20
2018-08-03T06:29:44.140Z,22.70
2018-08-03T06:32:12.362Z,22.97
2018-08-03T06:34:40.435Z,22.97
2018-08-03T06:37:08.651Z,23.17
2018-08-03T06:39:36.726Z,22.90
2018-08-03T06:42:04.857Z,23.30
2018-08-03T06:44:32.942Z,23.47
2018-08-03T06:47:00.984Z,24.03
2018-08-03T06:49:29.073Z,23.77
2018-08-03T06:51:57.141Z,23.10
2018-08-03T06:54:25.310Z,24.00
2018-08-03T06:56:53.528Z,24.40
2018-08-03T06:59:21.635Z,21.43
2018-08-03T07:01:49.723Z,21.07
2018-08-03T07:04:17.821Z,19.33
2018-08-03T07:06:45.890Z,18.90
2018-08-03T07:09:14.168Z,18.07
2018-08-03T07:11:42.228Z,17.10
2018-08-03T07:14:10.303Z,18.13
2018-08-03T07:16:38.352Z,18.17
2018-08-03T07:19:06.449Z,18.47
2018-08-03T07:21:34.653Z,18.27
2018-08-03T07:24:02.749Z,17.67
2018-08-03T07:26:30.894Z,20.30
2018-08-03T07:28:58.970Z,18.80
2018-08-03T07:31:27.802Z,18.13
2018-08-03T07:33:56.055Z,17.73
2018-08-03T07:36:24.132Z,19.13
2018-08-03T07:38:52.212Z,18.20
2018-08-03T07:41:20.320Z,19.00
2018-08-03T07:43:48.473Z,18.63
2018-08-03T07:46:16.682Z,18.20
2018-08-03T07:48:44.757Z,20.67
2018-08-03T07:51:12.841Z,19.90
2018-08-03T07:53:40.935Z,19.80
2018-08-03T07:56:09.005Z,18.67
2018-08-03T07:58:37.145Z,19.80
2018-08-03T08:01:05.533Z,18.27
2018-08-03T08:03:33.653Z,19.50
2018-08-03T08:06:01.729Z,19.03
2018-08-03T08:08:30.017Z,19.73
2018-08-03T08:10:58.226Z,18.83
2018-08-03T08:13:26.545Z,19.50
2018-08-03T08:15:54.596Z,19.70
2018-08-03T08:18:22.666Z,18.40
2018-08-03T08:20:50.704Z,20.30
2018-08-03T08:23:18.781Z,19.30
2018-08-03T08:25:47.028Z,19.20
2018-08-03T08:28:15.236Z,20.33
2018-08-03T08:30:43.468Z,20.87
2018-08-03T08:33:11.544Z,18.73
2018-08-03T08:35:39.622Z,19.43
2018-08-03T08:38:07.803Z,18.77
2018-08-03T08:40:35.884Z,18.10
2018-08-03T08:43:03.976Z,18.60
2018-08-03T08:45:32.122Z,19.80
2018-08-03T08:48:00.276Z,18.00
2018-08-03T08:50:28.381Z,18.53
2018-08-03T08:52:56.864Z,19.03
2018-08-03T08:55:25.105Z,17.50
2018-08-03T08:57:53.199Z,17.53
2018-08-03T09:00:21.266Z,18.47
2018-08-03T09:02:49.449Z,17.37
2018-08-03T09:05:17.553Z,18.23
2018-08-03T09:07:45.662Z,17.83
2018-08-03T09:10:14.309Z,16.53
2018-08-03T09:12:42.390Z,16.77
2018-08-03T09:15:10.653Z,17.17
2018-08-03T09:17:38.756Z,20.27
2018-08-03T09:20:06.897Z,17.57
2018-08-03T09:22:35.101Z,17.27
2018-08-03T09:25:03.218Z,16.90
2018-08-03T09:27:31.309Z,16.13
2018-08-03T09:29:59.417Z,15.77
2018-08-03T09:32:27.530Z,15.90
2018-08-03T09:34:55.643Z,15.13
2018-08-03T09:37:23.715Z,15.10
2018-08-03T09:39:51.966Z,15.60
2018-08-03T09:42:20.372Z,14.30
2018-08-03T09:44:48.799Z,15.30
2018-08-03T09:47:16.897Z,15.40
2018-08-03T09:49:45.025Z,15.13
2018-08-03T09:52:13.107Z,15.20
2018-08-03T09:54:41.226Z,14.60
2018-08-03T09:57:09.413Z,13.83
2018-08-03T09:59:37.492Z,14.20
2018-08-03T10:02:05.595Z,14.87
2018-08-03T10:04:33.704Z,14.80
2018-08-03T10:07:01.805Z,14.00
2018-08-03T10:09:30.090Z,15.47
2018-08-03T10:11:58.140Z,16.53
2018-08-03T10:14:26.221Z,16.20
2018-08-03T10:16:54.270Z,16.20
2018-08-03T10:19:22.398Z,15.67
2018-08-03T10:21:50.501Z,15.70
2018-08-03T10:24:18.617Z,15.20
2018-08-03T10:26:46.688Z,15.20
2018-08-03T10:29:14.773Z,16.10
2018-08-03T10:31:42.869Z,15.73
2018-08-03T10:34:10.977Z,15.47
2018-08-03T10:36:39.480Z,15.10
2018-08-03T10:39:09.213Z,15.87
2018-08-03T10:41:37.809Z,15.37
2018-08-03T10:44:05.946Z,15.30
2018-08-03T10:46:34.032Z,16.47
2018-08-03T10:49:02.130Z,15.13
2018-08-03T10:51:30.288Z,15.83
2018-08-03T10:53:58.566Z,15.80
2018-08-03T10:56:26.660Z,14.97
2018-08-03T10:58:54.861Z,15.80
2018-08-03T11:01:23.120Z,15.63
2018-08-03T11:03:51.408Z,15.80
2018-08-03T11:06:19.477Z,15.90
2018-08-03T11:08:47.710Z,14.43
2018-08-03T11:11:15.881Z,15.83
2018-08-03T11:13:43.967Z,14.73
2018-08-03T11:16:12.978Z,14.23
2018-08-03T11:18:41.044Z,14.23
2018-08-03T11:21:09.155Z,15.20
2018-08-03T11:23:37.212Z,13.30
2018-08-03T11:26:05.400Z,14.20
2018-08-03T11:28:33.589Z,15.27
2018-08-03T11:31:01.734Z,13.60
2018-08-03T11:33:29.953Z,14.50
2018-08-03T11:35:58.103Z,13.03
2018-08-03T11:38:26.444Z,14.87
2018-08-03T11:40:54.554Z,13.33
2018-08-03T11:43:22.813Z,14.20
2018-08-03T11:45:50.952Z,13.77
2018-08-03T11:48:19.090Z,12.90
2018-08-03T11:50:47.386Z,13.20
2018-08-03T11:53:15.473Z,14.30
2018-08-03T11:55:43.559Z,13.43
2018-08-03T11:58:11.624Z,12.90
2018-08-03T12:00:39.824Z,12.70
2018-08-03T12:03:08.035Z,11.70
2018-08-03T12:05:36.128Z,13.17
2018-08-03T12:08:04.427Z,12.83
2018-08-03T12:10:32.498Z,13.00
2018-08-03T12:13:00.564Z,11.67
2018-08-03T12:15:28.802Z,13.87
2018-08-03T12:17:56.892Z,12.60
2018-08-03T12:20:25.175Z,12.30
2018-08-03T12:22:53.249Z,12.50
2018-08-03T12:25:21.347Z,12.97
2018-08-03T12:27:49.396Z,12.67
2018-08-03T12:30:17.703Z,11.73
2018-08-03T12:32:45.784Z,12.73
2018-08-03T12:35:13.877Z,12.63
2018-08-03T12:37:42.012Z,12.20
2018-08-03T12:40:10.117Z,11.57
2018-08-03T12:42:38.197Z,11.87
2018-08-03T12:45:06.389Z,13.53
2018-08-03T12:47:34.592Z,12.77
2018-08-03T12:50:02.890Z,11.50
2018-08-03T12:52:31.017Z,11.77
2018-08-03T12:54:59.249Z,11.97
2018-08-03T12:57:27.396Z,11.77
2018-08-03T12:59:55.561Z,12.13
2018-08-03T13:02:23.679Z,11.80
2018-08-03T13:04:51.856Z,11.57
2018-08-03T13:07:19.982Z,12.03
2018-08-03T13:09:48.316Z,11.27
2018-08-03T13:12:16.416Z,11.43
2018-08-03T13:14:44.480Z,15.33
2018-08-03T13:17:12.751Z,12.00
2018-08-03T13:19:40.863Z,11.43
2018-08-03T13:22:14.400Z,11.73
2018-08-03T13:24:42.498Z,12.00
2018-08-03T13:27:10.575Z,12.90
2018-08-03T13:29:38.684Z,12.93
2018-08-03T13:32:07.121Z,12.33
2018-08-03T13:34:35.180Z,11.20
2018-08-03T13:37:03.351Z,11.27
2018-08-03T13:39:31.423Z,11.77
2018-08-03T13:41:59.518Z,10.73
2018-08-03T13:44:27.590Z,13.17
2018-08-03T13:46:55.725Z,11.50
2018-08-03T13:49:23.800Z,11.77
2018-08-03T13:51:51.868Z,15.73
2018-08-03T13:54:20.322Z,12.20
2018-08-03T13:56:48.393Z,10.13
2018-08-03T13:59:16.457Z,10.47
2018-08-03T14:01:50.061Z,10.60
2018-08-03T14:04:18.168Z,11.53
2018-08-03T14:06:46.451Z,11.00
2018-08-03T14:09:14.528Z,10.97
2018-08-03T14:11:42.604Z,11.33
2018-08-03T14:14:10.701Z,11.60
2018-08-03T14:16:38.801Z,10.53
2018-08-03T14:19:06.896Z,11.10
2018-08-03T14:21:34.984Z,10.63
2018-08-03T14:24:03.060Z,10.67
2018-08-03T14:26:31.132Z,10.90
2018-08-03T14:28:59.229Z,10.40
2018-08-03T14:31:27.376Z,10.90
2018-08-03T14:33:55.654Z,11.73
2018-08-03T14:36:23.725Z,10.90
2018-08-03T14:38:51.799Z,10.73
2018-08-03T14:41:19.954Z,10.93
2018-08-03T14:43:48.252Z,10.33
2018-08-03T14:46:16.329Z,10.80
2018-08-03T14:48:44.422Z,11.73
2018-08-03T14:51:12.551Z,10.20
2018-08-03T14:53:40.631Z,10.80
2018-08-03T14:56:09.056Z,11.00
2018-08-03T14:58:37.099Z,10.10
2018-08-03T15:01:05.200Z,9.90
2018-08-03T15:03:33.309Z,10.43
2018-08-03T15:06:01.376Z,10.30
2018-08-03T15:08:29.530Z,10.60
2018-08-03T15:10:57.584Z,10.10
2018-08-03T15:13:25.673Z,10.60
2018-08-03T15:15:53.822Z,11.10
2018-08-03T15:18:21.908Z,11.17
2018-08-03T15:20:50.056Z,11.90
2018-08-03T15:23:18.462Z,11.77
2018-08-03T15:25:46.534Z,11.40
2018-08-03T15:28:14.712Z,10.07
2018-08-03T15:30:42.804Z,10.40
2018-08-03T15:33:10.880Z,10.37
2018-08-03T15:35:38.998Z,9.53
2018-08-03T15:38:07.129Z,9.93
2018-08-03T15:40:35.596Z,10.90
2018-08-03T15:43:04.046Z,10.10
2018-08-03T15:45:32.342Z,9.83
2018-08-03T15:48:00.449Z,10.03
2018-08-03T15:50:28.732Z,10.30
2018-08-03T15:52:56.866Z,9.57
2018-08-03T15:55:24.933Z,9.90
2018-08-03T15:57:52.993Z,9.73
2018-08-03T16:00:21.114Z,11.63
2018-08-03T16:02:49.684Z,10.40
2018-08-03T16:05:18.131Z,9.50
2018-08-03T16:07:46.205Z,8.97
2018-08-03T16:10:14.285Z,9.50
2018-08-03T16:12:42.383Z,10.40
2018-08-03T16:15:10.642Z,9.97
2018-08-03T16:17:38.721Z,9.70
2018-08-03T16:20:06.858Z,10.33
2018-08-03T16:22:35.272Z,10.57
2018-08-03T16:25:03.840Z,10.17
2018-08-03T16:27:31.904Z,9.20
2018-08-03T16:30:00.028Z,9.77
2018-08-03T16:32:28.148Z,11.07
2018-08-03T16:34:56.244Z,9.43
2018-08-03T16:37:24.345Z,10.50
2018-08-03T16:39:52.442Z,9.73
2018-08-03T16:42:20.570Z,9.73
2018-08-03T16:44:48.685Z,10.93
2018-08-03T16:47:16.769Z,10.57
2018-08-03T16:49:45.169Z,10.37
2018-08-03T16:52:13.282Z,11.37
2018-08-03T16:54:41.625Z,9.70
2018-08-03T16:57:10.044Z,11.03
2018-08-03T16:59:38.148Z,10.90
2018-08-03T17:02:06.601Z,11.00
2018-08-03T17:04:34.704Z,10.37
2018-08-03T17:07:02.876Z,10.93
2018-08-03T17:09:32.012Z,9.53
2018-08-03T17:12:00.146Z,9.90
2018-08-03T17:14:28.212Z,9.80
2018-08-03T17:16:56.298Z,10.77
2018-08-03T17:19:24.369Z,10.50
2018-08-03T17:21:52.445Z,10.60
2018-08-03T17:24:20.920Z,15.20
2018-08-03T17:26:49.007Z,13.40
2018-08-03T17:29:17.123Z,11.53
2018-08-03T17:31:45.193Z,10.07
2018-08-03T17:34:13.573Z,10.70
2018-08-03T17:36:41.720Z,11.20
2018-08-03T17:39:10.792Z,11.63
2018-08-03T17:41:38.905Z,10.70
2018-08-03T17:44:07.506Z,12.17
2018-08-03T17:46:35.721Z,10.73
2018-08-03T17:49:03.844Z,10.30
2018-08-03T17:51:31.953Z,9.83
2018-08-03T17:54:00.149Z,11.77
2018-08-03T17:56:28.276Z,11.40
2018-08-03T17:58:56.505Z,10.70
2018-08-03T18:01:25.032Z,10.27
2018-08-03T18:03:53.261Z,11.23
2018-08-03T18:06:21.480Z,11.10
2018-08-03T18:08:49.698Z,10.83
2018-08-03T18:11:17.813Z,14.63
2018-08-03T18:13:45.960Z,11.00
2018-08-03T18:16:14.069Z,12.23
2018-08-03T18:18:42.142Z,11.87
2018-08-03T18:21:10.340Z,11.03
2018-08-03T18:23:38.424Z,12.47
2018-08-03T18:26:06.501Z,11.47
2018-08-03T18:28:34.545Z,11.63
2018-08-03T18:31:02.645Z,10.40
2018-08-03T18:33:30.749Z,11.10
2018-08-03T18:35:58.819Z,10.93
2018-08-03T18:38:27.000Z,11.43
2018-08-03T18:40:55.171Z,11.10
2018-08-03T18:43:23.312Z,11.00
2018-08-03T18:45:51.431Z,11.50
2018-08-03T18:48:19.520Z,11.47
2018-08-03T18:50:47.644Z,11.70
2018-08-03T18:53:15.780Z,10.63
2018-08-03T18:55:43.857Z,10.93
2018-08-03T18:58:12.142Z,12.23
2018-08-03T19:00:40.196Z,11.40
2018-08-03T19:03:08.349Z,12.03
2018-08-03T19:05:36.413Z,13.93
2018-08-03T19:08:04.624Z,13.90
2018-08-03T19:10:32.733Z,15.73
2018-08-03T19:13:00.923Z,19.40
2018-08-03T19:15:29.055Z,18.90
2018-08-03T19:17:57.384Z,14.83
2018-08-03T19:20:25.443Z,12.83
2018-08-03T19:22:53.579Z,13.97
2018-08-03T19:25:21.662Z,12.10
2018-08-03T19:27:49.746Z,13.93
2018-08-03T19:30:17.928Z,13.03
2018-08-03T19:32:46.124Z,12.87
2018-08-03T19:35:14.263Z,12.80
2018-08-03T19:37:42.347Z,13.57
2018-08-03T19:40:10.664Z,14.43
2018-08-03T19:42:39.089Z,14.03
2018-08-03T19:45:07.691Z,14.17
2018-08-03T19:47:36.050Z,14.07
2018-08-03T19:50:04.160Z,14.30
2018-08-03T19:52:32.309Z,14.33
2018-08-03T19:55:00.649Z,14.13
2018-08-03T19:57:28.733Z,14.60
2018-08-03T19:59:57.700Z,15.33
2018-08-03T20:02:26.183Z,17.87
2018-08-03T20:04:54.339Z,17.13
2018-08-03T20:07:22.432Z,14.13
2018-08-03T20:09:50.780Z,16.00
2018-08-03T20:12:18.970Z,15.87
2018-08-03T20:14:47.048Z,17.67
2018-08-03T20:17:15.237Z,20.40
2018-08-03T20:19:43.325Z,17.73
2018-08-03T20:22:12.150Z,16.23
2018-08-03T20:24:40.369Z,16.40
2018-08-03T20:27:08.545Z,15.50
2018-08-03T20:29:36.964Z,17.87
2018-08-03T20:32:05.364Z,18.57
2018-08-03T20:34:33.465Z,16.80
2018-08-03T20:37:01.593Z,15.57
2018-08-03T20:39:29.664Z,15.67
2018-08-03T20:41:57.765Z,14.73
2018-08-03T20:44:26.155Z,14.70
2018-08-03T20:46:54.429Z,14.40
2018-08-03T20:49:22.578Z,15.43
2018-08-03T20:51:50.676Z,14.57
2018-08-03T20:54:18.964Z,14.67
2018-08-03T20:56:47.089Z,14.80
2018-08-03T20:59:15.282Z,14.20
2018-08-03T21:01:43.357Z,14.83
2018-08-03T21:04:11.580Z,14.87
2018-08-03T21:06:39.680Z,13.00
2018-08-03T21:09:08.752Z,15.10
2018-08-03T21:11:36.826Z,14.60
2018-08-03T21:14:05.526Z,15.80
2018-08-03T21:16:33.808Z,15.10
2018-08-03T21:19:02.433Z,14.60
2018-08-03T21:21:30.625Z,14.40
2018-08-03T21:23:58.823Z,15.13
2018-08-03T21:26:26.913Z,15.03
2018-08-03T21:28:54.995Z,15.07
2018-08-03T21:31:23.153Z,15.97
2018-08-03T21:33:51.568Z,15.57
2018-08-03T21:36:19.643Z,16.40
2018-08-03T21:38:47.895Z,16.47
2018-08-03T21:41:15.952Z,16.23
2018-08-03T21:43:44.148Z,15.83
2018-08-03T21:46:12.389Z,15.97
2018-08-03T21:48:40.460Z,16.83
2018-08-03T21:51:08.551Z,18.90
2018-08-03T21:53:36.625Z,19.43
2018-08-03T21:56:05.081Z,18.30
2018-08-03T21:58:33.192Z,17.57
2018-08-03T22:01:01.321Z,18.70
2018-08-03T22:03:29.416Z,20.37
2018-08-03T22:05:57.669Z,21.97
2018-08-03T22:08:25.758Z,22.13
2018-08-03T22:10:53.844Z,21.00
2018-08-03T22:13:22.060Z,19.07
2018-08-03T22:15:50.529Z,17.07
2018-08-03T22:18:18.676Z,17.47
2018-08-03T22:20:46.732Z,15.43
2018-08-03T22:23:14.782Z,14.70
2018-08-03T22:25:42.977Z,15.03
2018-08-03T22:28:11.183Z,14.17
2018-08-03T22:30:39.320Z,15.13
2018-08-03T22:33:07.418Z,14.77
2018-08-03T22:35:35.480Z,15.10
2018-08-03T22:38:03.560Z,15.70
2018-08-03T22:40:31.657Z,13.77
2018-08-03T22:42:59.833Z,14.37
2018-08-03T22:45:28.013Z,15.73
2018-08-03T22:47:56.276Z,15.73
2018-08-03T22:50:24.334Z,15.60
2018-08-03T22:52:52.417Z,14.93
2018-08-03T22:55:20.468Z,14.70
2018-08-03T22:57:48.921Z,16.97
2018-08-03T23:00:17.003Z,14.87
2018-08-03T23:02:45.061Z,15.63
2018-08-03T23:05:13.140Z,14.97
2018-08-03T23:07:41.214Z,16.23
2018-08-03T23:10:09.699Z,14.90
2018-08-03T23:12:37.796Z,14.40
2018-08-03T23:15:06.556Z,16.23
2018-08-03T23:17:34.656Z,15.57
2018-08-03T23:20:02.841Z,14.97
2018-08-03T23:22:30.905Z,15.70
2018-08-03T23:24:59.028Z,15.03
2018-08-03T23:27:27.321Z,16.10
2018-08-03T23:29:55.504Z,14.83
2018-08-03T23:32:23.601Z,14.80
2018-08-03T23:34:51.685Z,14.23
2018-08-03T23:37:19.739Z,15.30
2018-08-03T23:39:48.200Z,15.40
2018-08-03T23:42:16.277Z,15.43
2018-08-03T23:44:44.355Z,15.83
2018-08-03T23:47:12.451Z,14.80
2018-08-03T23:49:41.016Z,16.03
2018-08-03T23:52:09.105Z,16.70
2018-08-03T23:54:37.296Z,15.90
2018-08-03T23:57:05.917Z,15.93
2018-08-03T23:59:34.048Z,15.27
